Time;durP1;ratioP1;P1;durP2;ratioP2;P2;SDS_P1;SDS_P2;PMS_P1;PMS_P2;Temp;Humidity;BMP_temperature;BMP_pressure;BME280_temperature;BME280_humidity;BME280_pressure;Samples;Min_cycle;Max_cycle;Signal;HPM_P1;HPM_P2
2022/09/15 00:00:53;;;;;;;5.32;3.55;;;;;;;22.24;92.21;98918.13;6337237;22;20007;-79
2022/09/15 00:03:20;;;;;;;7.28;3.38;;;;;;;22.19;92.64;98935.19;6337227;22;20561;-79
2022/09/15 00:05:46;;;;;;;7.43;3.55;;;;;;;22.11;92.43;98923.81;6309855;22;20014;-85
2022/09/15 00:08:12;;;;;;;4.90;3.33;;;;;;;22.11;92.76;98942.81;6336884;22;20018;-84
2022/09/15 00:10:46;;;;;;;8.07;3.17;;;;;;;22.06;92.45;98921.06;6337319;22;20491;-85
2022/09/15 00:13:12;;;;;;;5.32;3.80;;;;;;;22.09;92.65;98926.38;6310197;22;20052;-84
2022/09/15 00:15:38;;;;;;;7.15;3.85;;;;;;;22.03;94.98;98919.34;6337452;22;20011;-85
2022/09/15 00:18:03;;;;;;;10.18;4.30;;;;;;;21.96;97.41;98929.19;6309119;22;20006;-86
2022/09/15 00:20:29;;;;;;;7.35;3.88;;;;;;;21.84;100.00;98939.16;6337481;22;20015;-85
2022/09/15 00:22:55;;;;;;;6.50;3.92;;;;;;;21.69;100.00;98944.56;6336760;22;20014;-85
2022/09/15 00:25:21;;;;;;;4.93;3.70;;;;;;;21.62;100.00;98940.31;6337744;22;20006;-83
2022/09/15 00:27:46;;;;;;;6.63;3.80;;;;;;;21.61;100.00;98932.38;6309735;22;20440;-85
2022/09/15 00:30:12;;;;;;;6.78;4.22;;;;;;;21.55;100.00;98945.84;6337561;22;20011;-85
2022/09/15 00:32:38;;;;;;;7.53;4.18;;;;;;;21.52;100.00;98932.78;6337263;22;20010;-85
2022/09/15 00:35:04;;;;;;;5.30;3.60;;;;;;;21.48;100.00;98935.16;6309377;22;20068;-85
2022/09/15 00:37:29;;;;;;;7.63;4.15;;;;;;;21.33;100.00;98939.28;6337577;22;20006;-85
2022/09/15 00:39:55;;;;;;;8.48;4.10;;;;;;;21.33;100.00;98930.03;6336760;22;20006;-85
2022/09/15 00:42:21;;;;;;;7.68;4.05;;;;;;;21.29;100.00;98924.72;6337519;22;20487;-84
2022/09/15 00:44:56;;;;;;;7.63;4.20;;;;;;;21.29;100.00;98924.72;6337323;22;20003;-85
2022/09/15 00:47:30;;;;;;;6.22;3.80;;;;;;;21.28;100.00;98928.81;6309886;22;20467;-85
2022/09/15 00:50:02;;;;;;;5.47;3.50;;;;;;;21.29;100.00;98910.63;6309897;22;20093;-85
2022/09/15 00:52:45;;;;;;;5.32;3.65;;;;;;;21.29;100.00;98923.94;6283518;22;20049;-85
2022/09/15 00:55:21;;;;;;;6.93;4.10;;;;;;;21.24;100.00;98911.47;6336497;22;20393;-85
2022/09/15 00:57:52;;;;;;;7.63;3.83;;;;;;;21.19;100.00;98903.09;6309406;22;20436;-86
2022/09/15 01:00:19;;;;;;;7.22;4.10;;;;;;;21.23;100.00;98915.56;6337461;22;20046;-86
2022/09/15 01:02:46;;;;;;;5.15;3.72;;;;;;;21.17;100.00;98912.09;6312208;22;20046;-78
2022/09/15 01:05:13;;;;;;;6.85;4.10;;;;;;;21.21;100.00;98917.41;6308937;22;20019;-78
2022/09/15 01:07:43;;;;;;;6.60;4.05;;;;;;;21.24;100.00;98927.63;6309539;22;20011;-79
2022/09/15 01:10:16;;;;;;;5.07;4.00;;;;;;;21.17;100.00;98917.72;6309389;22;20034;-79
2022/09/15 01:12:41;;;;;;;7.43;4.00;;;;;;;21.17;100.00;98917.72;6309394;22;20021;-79
2022/09/15 01:15:07;;;;;;;6.15;4.20;;;;;;;21.15;100.00;98917.50;6309023;22;20094;-79
2022/09/15 01:17:38;;;;;;;6.22;4.15;;;;;;;21.09;100.00;98911.16;6336305;22;20002;-79
2022/09/15 01:20:25;;;;;;;8.77;4.20;;;;;;;21.04;100.00;98914.81;6335915;22;20313;-79
2022/09/15 01:23:10;;;;;;;7.68;4.70;;;;;;;20.95;100.00;98912.41;6337074;22;20037;-79
2022/09/15 01:26:06;;;;;;;6.13;4.88;;;;;;;20.87;100.00;98900.97;6309635;22;20015;-79
2022/09/15 01:28:40;;;;;;;10.15;4.85;;;;;;;20.90;100.00;98916.06;6309587;22;20060;-79
2022/09/15 01:31:23;;;;;;;7.25;4.93;;;;;;;20.90;100.00;98911.22;6336465;22;20286;-79
2022/09/15 01:34:04;;;;;;;7.57;4.93;;;;;;;20.87;100.00;98917.88;6307614;22;20017;-79
2022/09/15 01:36:56;;;;;;;7.20;4.50;;;;;;;20.92;100.00;98931.16;6308968;22;20011;-79
2022/09/15 01:39:28;;;;;;;5.88;4.43;;;;;;;20.80;100.00;98965.66;6308608;22;20014;-79
2022/09/15 01:41:59;;;;;;;8.77;4.93;;;;;;;20.55;100.00;98964.94;6308149;22;20014;-79
2022/09/15 01:44:28;;;;;;;7.30;5.13;;;;;;;20.47;100.00;98956.34;6308612;22;20081;-79
2022/09/15 01:47:04;;;;;;;7.97;5.13;;;;;;;20.30;100.00;98952.97;6309077;22;20006;-79
2022/09/15 01:49:35;;;;;;;7.93;5.40;;;;;;;20.25;100.00;98953.78;6309437;22;20034;-79
2022/09/15 01:52:02;;;;;;;;;;;;;;;20.12;100.00;98950.09;6310075;22;20046;-79
2022/09/15 01:54:36;;;;;;;8.02;4.72;;;;;;;20.10;100.00;98942.16;6283505;22;19910;-80
2022/09/15 01:57:01;;;;;;;;;;;;;;;19.89;100.00;98950.34;6309878;22;20082;-86
2022/09/15 01:59:27;;;;;;;6.28;3.80;;;;;;;19.73;100.00;98914.69;6309715;22;19942;-86
2022/09/15 02:02:03;;;;;;;5.47;3.90;;;;;;;19.72;100.00;98901.13;6336789;22;20038;-86
2022/09/15 02:04:47;;;;;;;7.72;4.18;;;;;;;19.67;100.00;98885.84;6336540;22;20007;-86
2022/09/15 02:07:25;;;;;;;7.28;4.53;;;;;;;19.70;100.00;98881.97;6309452;22;20011;-85
2022/09/15 02:10:31;;;;;;;5.53;4.63;;;;;;;19.74;100.00;98873.22;6337426;22;20133;-85
2022/09/15 02:13:21;;;;;;;7.63;5.07;;;;;;;19.74;100.00;98850.72;6308916;22;20015;-85
2022/09/15 02:15:52;;;;;;;6.47;4.40;;;;;;;19.70;100.00;98850.25;6337093;22;20067;-86
2022/09/15 02:18:43;;;;;;;6.28;4.85;;;;;;;19.74;100.00;98853.53;6336730;22;20015;-85
2022/09/15 02:21:14;;;;;;;7.85;5.50;;;;;;;19.69;100.00;98862.81;6308558;22;20011;-86
2022/09/15 02:23:53;;;;;;;7.90;5.50;;;;;;;19.74;100.00;98887.28;6309767;22;20318;-84
2022/09/15 02:26:23;;;;;;;7.07;5.85;;;;;;;19.77;100.00;98884.22;6308664;22;20018;-84
2022/09/15 02:28:49;;;;;;;6.88;6.18;;;;;;;19.75;100.00;98883.97;6309439;22;20010;-85
2022/09/15 02:31:17;;;;;;;9.50;5.63;;;;;;;19.76;100.00;98890.34;6308259;22;20011;-84
2022/09/15 02:33:56;;;;;;;8.15;5.68;;;;;;;19.71;100.00;98905.22;6308262;22;20066;-85
2022/09/15 02:36:23;;;;;;;6.40;5.70;;;;;;;19.70;100.00;98938.22;6309136;22;20015;-84
2022/09/15 02:38:54;;;;;;;7.00;5.60;;;;;;;19.70;100.00;98949.47;6308697;22;20011;-85
2022/09/15 02:41:19;;;;;;;10.68;6.15;;;;;;;19.60;100.00;98951.13;6308395;22;20011;-85
2022/09/15 02:43:46;;;;;;;9.40;6.18;;;;;;;19.63;100.00;98954.91;6336568;22;20011;-85
2022/09/15 02:46:12;;;;;;;7.70;5.53;;;;;;;19.68;100.00;98940.03;6336507;22;20030;-86
2022/09/15 02:48:38;;;;;;;7.32;5.57;;;;;;;19.68;100.00;98943.63;6309086;22;20011;-85
2022/09/15 02:51:03;;;;;;;7.68;5.63;;;;;;;19.66;100.00;98940.56;6336009;22;20493;-85
2022/09/15 02:53:29;;;;;;;9.00;5.93;;;;;;;19.63;100.00;98938.81;6336874;22;20011;-85
2022/09/15 02:55:55;;;;;;;8.45;5.68;;;;;;;19.69;100.00;98944.41;6337662;22;20003;-85
2022/09/15 02:58:20;;;;;;;10.32;6.20;;;;;;;19.66;100.00;98937.75;6308613;22;20010;-85
2022/09/15 03:00:46;;;;;;;8.02;5.90;;;;;;;19.68;100.00;98935.19;6336686;22;20022;-85
2022/09/15 03:03:12;;;;;;;5.88;4.93;;;;;;;19.74;100.00;98938.69;6282221;22;20356;-85
2022/09/15 03:05:37;;;;;;;7.85;5.40;;;;;;;19.76;100.00;98941.75;6308874;22;20053;-85
2022/09/15 03:08:03;;;;;;;8.15;5.70;;;;;;;19.78;100.00;98938.41;6336885;22;20033;-85
2022/09/15 03:10:29;;;;;;;7.55;5.72;;;;;;;19.80;100.00;98938.66;6337411;22;20010;-86
2022/09/15 03:12:54;;;;;;;7.28;5.47;;;;;;;19.80;100.00;98938.66;6337208;22;20064;-86
2022/09/15 03:15:22;;;;;;;8.30;5.78;;;;;;;19.83;100.00;98940.41;6336385;22;20402;-86
2022/09/15 03:17:48;;;;;;;7.80;5.68;;;;;;;19.86;100.00;98922.47;6309361;22;20011;-85
2022/09/15 03:20:19;;;;;;;8.90;5.50;;;;;;;19.86;100.00;98925.28;6336359;22;20035;-84
2022/09/15 03:22:45;;;;;;;7.63;5.88;;;;;;;19.81;100.00;98920.50;6308798;22;20467;-86
2022/09/15 03:25:11;;;;;;;8.40;5.63;;;;;;;19.82;100.00;98922.00;6336213;22;19998;-84
2022/09/15 03:27:36;;;;;;;7.00;5.32;;;;;;;19.80;100.00;98922.53;6308508;22;20348;-84
2022/09/15 03:30:04;;;;;;;7.35;5.63;;;;;;;19.75;100.00;98916.94;6309625;22;20078;-85
2022/09/15 03:32:29;;;;;;;9.45;5.32;;;;;;;19.78;100.00;98918.72;6309306;22;20011;-85
2022/09/15 03:34:55;;;;;;;6.97;5.57;;;;;;;19.74;100.00;98915.41;6308815;22;20033;-84
2022/09/15 03:37:20;;;;;;;8.80;5.50;;;;;;;19.73;100.00;98914.69;6336900;22;20011;-86
2022/09/15 03:39:46;;;;;;;7.22;4.78;;;;;;;19.78;100.00;98919.47;6309864;22;20015;-85
2022/09/15 03:42:12;;;;;;;8.63;5.28;;;;;;;19.79;100.00;98921.00;6336697;22;20329;-86
2022/09/15 03:44:38;;;;;;;6.40;5.30;;;;;;;19.77;100.00;98911.56;6337553;22;20014;-86
2022/09/15 03:47:04;;;;;;;7.00;4.82;;;;;;;19.79;100.00;98923.81;6309273;22;20014;-86
2022/09/15 03:49:30;;;;;;;7.72;5.30;;;;;;;19.85;100.00;98926.59;6336481;22;20086;-85
2022/09/15 03:51:57;;;;;;;6.15;5.53;;;;;;;19.78;100.00;98911.03;6309746;22;19995;-85
2022/09/15 03:54:23;;;;;;;7.63;5.60;;;;;;;19.74;100.00;98910.56;6336576;22;20014;-85
2022/09/15 03:56:50;;;;;;;7.05;5.72;;;;;;;19.76;100.00;98907.22;6336537;22;20045;-85
2022/09/15 03:59:17;;;;;;;7.25;5.70;;;;;;;19.76;100.00;98895.97;6336228;22;20059;-85
2022/09/15 04:01:44;;;;;;;7.35;5.40;;;;;;;19.70;100.00;98900.88;6337089;22;20485;-85
2022/09/15 04:04:10;;;;;;;7.45;5.45;;;;;;;19.76;100.00;98898.78;6308605;22;20129;-85
2022/09/15 04:06:36;;;;;;;7.40;6.05;;;;;;;19.72;100.00;98901.13;6336915;22;20064;-85
2022/09/15 04:09:03;;;;;;;8.57;5.65;;;;;;;19.75;100.00;98906.47;6336609;22;20044;-86
2022/09/15 04:11:30;;;;;;;7.68;6.07;;;;;;;19.72;100.00;98909.56;6336889;22;20006;-86
2022/09/15 04:13:56;;;;;;;6.90;5.40;;;;;;;19.70;100.00;98901.66;6336037;22;20019;-85
2022/09/15 04:16:23;;;;;;;9.45;6.28;;;;;;;19.69;100.00;98914.22;6283027;22;20516;-86
2022/09/15 04:18:50;;;;;;;8.48;5.72;;;;;;;19.62;100.00;98914.00;6308699;22;19998;-85
2022/09/15 04:21:18;;;;;;;11.82;5.93;;;;;;;19.69;100.00;98924.69;6336204;22;20106;-85
2022/09/15 04:23:44;;;;;;;7.65;5.32;;;;;;;19.68;100.00;98928.78;6336209;22;20014;-85
2022/09/15 04:26:32;;;;;;;7.88;5.72;;;;;;;19.66;100.00;98942.63;6307134;22;20015;-85
2022/09/15 04:28:59;;;;;;;6.63;5.35;;;;;;;19.63;100.00;98926.78;6337324;22;20047;-85
2022/09/15 04:31:24;;;;;;;7.78;5.50;;;;;;;19.61;100.00;98923.75;6337899;22;20011;-85
2022/09/15 04:33:54;;;;;;;8.50;5.20;;;;;;;19.61;100.00;98923.75;6338474;22;20033;-86
2022/09/15 04:36:24;;;;;;;10.02;5.93;;;;;;;19.55;100.00;98938.63;6338348;22;20077;-87
2022/09/15 04:38:50;;;;;;;7.65;6.72;;;;;;;19.52;100.00;98939.69;6310582;22;20049;-88
2022/09/15 04:41:16;;;;;;;9.07;7.30;;;;;;;19.45;100.00;98950.75;6337081;22;20198;-87
2022/09/15 04:43:42;;;;;;;9.02;6.15;;;;;;;19.47;100.00;98954.56;6337910;22;20318;-86
2022/09/15 04:46:09;;;;;;;9.23;6.60;;;;;;;19.57;100.00;98971.09;6337787;22;20045;-84
2022/09/15 04:48:37;;;;;;;7.13;6.38;;;;;;;19.60;100.00;98972.84;6310297;22;19998;-84
2022/09/15 04:51:05;;;;;;;7.22;6.45;;;;;;;19.62;100.00;98965.41;6336468;22;20010;-84
2022/09/15 04:53:30;;;;;;;8.13;6.97;;;;;;;19.61;100.00;98966.72;6336984;22;20011;-87
2022/09/15 04:56:08;;;;;;;11.50;10.13;;;;;;;19.57;100.00;98963.44;6337837;22;20017;-87
2022/09/15 04:58:43;;;;;;;10.48;7.43;;;;;;;19.57;100.00;98968.28;6337312;22;20082;-86
2022/09/15 05:01:12;;;;;;;8.88;7.45;;;;;;;19.57;100.00;98968.28;6337991;22;20033;-87
2022/09/15 05:03:38;;;;;;;10.20;6.80;;;;;;;19.57;100.00;98965.47;6338121;22;20090;-87
2022/09/15 05:06:08;;;;;;;7.45;6.10;;;;;;;19.63;100.00;98971.81;6310248;22;20007;-86
2022/09/15 05:08:34;;;;;;;8.15;5.88;;;;;;;19.55;100.00;98978.00;6309207;22;20011;-86
2022/09/15 05:11:05;;;;;;;6.50;5.85;;;;;;;19.54;100.00;98970.06;6310699;22;20381;-86
2022/09/15 05:13:32;;;;;;;7.68;5.97;;;;;;;19.48;100.00;98972.97;6308763;22;20109;-86
2022/09/15 05:16:08;;;;;;;8.82;6.38;;;;;;;19.51;100.00;98977.53;6338047;22;20436;-85
2022/09/15 05:18:34;;;;;;;8.98;6.22;;;;;;;19.55;100.00;98974.44;6310177;22;20069;-86
2022/09/15 05:21:00;;;;;;;9.45;6.53;;;;;;;19.58;100.00;98972.59;6338010;22;20067;-86
2022/09/15 05:23:26;;;;;;;7.72;6.10;;;;;;;19.56;100.00;98973.16;6335422;22;20047;-85
2022/09/15 05:26:00;;;;;;;9.20;5.85;;;;;;;19.59;100.00;98971.31;6335612;22;20003;-86
2022/09/15 05:28:26;;;;;;;8.05;6.15;;;;;;;19.65;100.00;98983.31;6337553;22;20015;-86
2022/09/15 05:30:53;;;;;;;8.73;6.88;;;;;;;19.55;100.00;98980.81;6337886;22;20068;-85
2022/09/15 05:33:19;;;;;;;9.38;6.60;;;;;;;19.50;100.00;98980.84;6336992;22;20018;-85
2022/09/15 05:35:52;;;;;;;7.80;6.82;;;;;;;19.53;100.00;98997.44;6309683;22;20002;-86
2022/09/15 05:38:18;;;;;;;;;;;;;;;19.46;100.00;98998.00;6337620;22;20340;-86
2022/09/15 05:40:43;;;;;;;8.68;7.07;;;;;;;19.45;100.00;99002.09;6337242;22;19910;-86
2022/09/15 05:43:10;;;;;;;11.38;8.07;;;;;;;19.40;100.00;99000.09;6336289;22;20435;-87
2022/09/15 05:45:35;;;;;;;8.75;7.40;;;;;;;19.31;100.00;98991.19;6337478;22;20449;-86
2022/09/15 05:48:02;;;;;;;10.75;8.52;;;;;;;19.30;100.00;99007.31;6308589;22;20011;-87
2022/09/15 05:50:29;;;;;;;12.93;8.48;;;;;;;19.41;100.00;99007.22;6282738;22;20464;-87
2022/09/15 05:52:55;;;;;;;10.40;7.63;;;;;;;19.48;100.00;99006.72;6337555;22;20010;-86
2022/09/15 05:55:21;;;;;;;10.32;7.80;;;;;;;19.43;100.00;99004.69;6333016;22;20448;-86
2022/09/15 05:57:46;;;;;;;10.05;8.18;;;;;;;19.39;100.00;98997.78;6308545;22;20011;-86
2022/09/15 06:00:12;;;;;;;11.48;8.73;;;;;;;19.36;100.00;99001.66;6336787;22;20022;-86
2022/09/15 06:02:38;;;;;;;10.30;8.15;;;;;;;19.36;100.00;98981.97;6335911;22;20046;-87
2022/09/15 06:05:04;;;;;;;11.98;7.90;;;;;;;19.39;100.00;98987.31;6336108;22;20014;-83
2022/09/15 06:07:29;;;;;;;10.07;7.30;;;;;;;19.39;100.00;98973.25;6334076;22;20397;-85
2022/09/15 06:09:55;;;;;;;13.07;7.18;;;;;;;19.58;100.00;98983.84;6333977;22;20007;-84
2022/09/15 06:12:20;;;;;;;13.98;7.22;;;;;;;19.72;100.00;98974.28;6333788;22;20076;-85
2022/09/15 06:14:49;;;;;;;8.52;5.75;;;;;;;19.86;100.00;98973.13;6333662;22;20014;-84
2022/09/15 06:17:16;;;;;;;9.32;5.97;;;;;;;19.97;100.00;98965.34;6334444;22;20037;-85
2022/09/15 06:19:41;;;;;;;10.40;6.45;;;;;;;20.07;100.00;98954.47;6305951;22;20015;-84
2022/09/15 06:22:07;;;;;;;9.65;6.53;;;;;;;20.29;100.00;98976.81;6308208;22;20083;-85
2022/09/15 06:24:32;;;;;;;13.98;6.75;;;;;;;20.42;100.00;98979.69;6336266;22;20003;-84
2022/09/15 06:26:58;;;;;;;8.18;6.00;;;;;;;20.46;100.00;98985.81;6336144;22;20709;-85
2022/09/15 06:29:24;;;;;;;9.43;5.80;;;;;;;20.75;100.00;98997.50;6335981;22;20015;-85
2022/09/15 06:31:49;;;;;;;7.20;5.43;;;;;;;20.87;100.00;98993.22;6337056;22;20011;-84
2022/09/15 06:34:15;;;;;;;11.13;5.70;;;;;;;20.91;100.00;98996.50;6308184;22;20022;-85
2022/09/15 06:36:40;;;;;;;9.98;5.78;;;;;;;21.08;100.00;98988.59;6337199;22;20325;-85
2022/09/15 06:39:12;;;;;;;10.73;5.25;;;;;;;21.24;100.00;98996.06;6337833;22;20017;-84
2022/09/15 06:41:38;;;;;;;9.95;5.18;;;;;;;21.27;100.00;98992.16;6337521;22;20034;-86
2022/09/15 06:44:03;;;;;;;7.47;5.05;;;;;;;21.44;100.00;99000.38;6308913;22;20434;-85
2022/09/15 06:46:29;;;;;;;8.90;5.10;;;;;;;21.54;100.00;99009.22;6336452;22;20011;-86
2022/09/15 06:48:54;;;;;;;10.80;5.82;;;;;;;21.56;100.00;98998.91;6335905;22;20467;-86
2022/09/15 06:51:22;;;;;;;10.18;5.20;;;;;;;21.69;100.00;99012.28;6336194;22;20003;-85
2022/09/15 06:53:48;;;;;;;6.93;5.10;;;;;;;21.71;100.00;99012.53;6336069;22;20332;-85
2022/09/15 06:56:16;;;;;;;10.38;4.85;;;;;;;21.81;100.00;99011.56;6283124;22;20022;-84
2022/09/15 06:58:42;;;;;;;7.90;4.85;;;;;;;21.85;100.00;99005.59;6336383;22;20081;-85
2022/09/15 07:01:11;;;;;;;9.90;4.90;;;;;;;21.80;100.00;99006.47;6336951;22;20073;-88
2022/09/15 07:03:38;;;;;;;8.73;5.10;;;;;;;21.92;100.00;99007.81;6308527;22;20045;-86
2022/09/15 07:06:05;;;;;;;7.85;4.57;;;;;;;22.11;100.00;99005.69;6309033;22;20107;-85
2022/09/15 07:08:30;;;;;;;11.18;4.68;;;;;;;22.22;100.00;99004.72;6308021;22;20014;-86
2022/09/15 07:10:56;;;;;;;7.45;4.57;;;;;;;22.37;100.00;99001.34;6336254;22;20513;-85
2022/09/15 07:13:22;;;;;;;8.43;4.63;;;;;;;22.40;100.00;98995.41;6308226;22;20328;-85
2022/09/15 07:15:58;;;;;;;8.95;4.20;;;;;;;22.45;100.00;99002.22;6308471;22;20096;-86
2022/09/15 07:18:24;;;;;;;10.15;4.93;;;;;;;22.25;100.00;99007.22;6308131;22;20018;-86
2022/09/15 07:20:49;;;;;;;7.97;4.38;;;;;;;22.25;100.00;99012.88;6308444;22;20424;-85
2022/09/15 07:23:16;;;;;;;9.60;4.32;;;;;;;22.28;100.00;99006.13;6308446;22;20344;-85
2022/09/15 07:25:43;;;;;;;8.30;4.00;;;;;;;22.50;100.00;99009.84;6336460;22;20011;-86
2022/09/15 07:28:13;;;;;;;6.63;4.47;;;;;;;22.74;100.00;99006.78;6309341;22;20011;-86
2022/09/15 07:30:39;;;;;;;8.13;3.80;;;;;;;22.97;100.00;99012.75;6336174;22;20018;-86
2022/09/15 07:33:11;;;;;;;9.13;4.80;;;;;;;22.92;100.00;99014.41;6308581;22;20002;-86
2022/09/15 07:35:41;;;;;;;6.00;3.85;;;;;;;22.74;100.00;99012.44;6282595;22;20097;-86
2022/09/15 07:38:06;;;;;;;8.48;3.85;;;;;;;22.82;100.00;99015.38;6309080;22;20015;-86
2022/09/15 07:40:32;;;;;;;7.97;3.88;;;;;;;22.92;100.00;98993.84;6337270;22;20034;-86
2022/09/15 07:42:58;;;;;;;7.15;3.53;;;;;;;22.95;100.00;98979.34;6336296;22;20116;-85
2022/09/15 07:45:24;;;;;;;10.18;3.65;;;;;;;23.01;100.00;98979.97;6335566;22;20039;-85
2022/09/15 07:47:49;;;;;;;9.30;3.78;;;;;;;23.24;100.00;98992.34;6308783;22;20030;-86
2022/09/15 07:50:15;;;;;;;7.45;3.80;;;;;;;23.27;100.00;98981.97;6335510;22;20017;-84
2022/09/15 07:52:40;;;;;;;6.43;3.25;;;;;;;23.20;100.00;98991.16;6308232;22;20379;-85
2022/09/15 07:55:07;;;;;;;8.23;3.63;;;;;;;23.13;100.00;98989.75;6307921;22;20421;-85
2022/09/15 07:57:33;;;;;;;7.40;3.58;;;;;;;23.15;100.00;98989.97;6336134;22;20022;-85
2022/09/15 07:59:58;;;;;;;6.63;3.88;;;;;;;23.01;100.00;98979.97;6336506;22;20043;-85
2022/09/15 08:02:24;;;;;;;5.75;3.30;;;;;;;23.02;100.00;98987.16;6337646;22;20459;-85
2022/09/15 08:04:49;;;;;;;10.25;3.65;;;;;;;22.99;100.00;98982.63;6336498;22;20013;-85
2022/09/15 08:07:15;;;;;;;11.23;3.63;;;;;;;22.93;100.00;98990.44;6337880;22;20424;-84
2022/09/15 08:09:40;;;;;;;8.18;3.13;;;;;;;22.96;100.00;98989.38;6337574;22;20005;-84
2022/09/15 08:12:07;;;;;;;6.93;3.08;;;;;;;22.91;100.00;98998.72;6338169;22;20056;-85
2022/09/15 08:14:32;;;;;;;7.97;3.55;;;;;;;23.03;100.00;98994.34;6337993;22;20011;-85
2022/09/15 08:17:00;;;;;;;8.13;3.70;;;;;;;23.21;100.00;99001.91;6338510;22;20310;-85
2022/09/15 08:19:33;;;;;;;6.65;3.53;;;;;;;23.33;100.00;98996.00;6336908;22;20081;-85
2022/09/15 08:21:59;;;;;;;5.85;3.30;;;;;;;23.43;100.00;98994.22;6310622;22;20090;-84
2022/09/15 08:24:24;;;;;;;8.45;3.40;;;;;;;23.41;100.00;98991.19;6309717;22;19999;-84
2022/09/15 08:26:50;;;;;;;7.43;3.40;;;;;;;23.53;100.00;98983.97;6310543;22;20340;-84
2022/09/15 08:29:16;;;;;;;9.60;3.33;;;;;;;23.55;100.00;98973.59;6337856;22;20003;-85
2022/09/15 08:31:43;;;;;;;6.47;3.05;;;;;;;23.52;100.00;98973.94;6309982;22;20013;-85
2022/09/15 08:34:11;;;;;;;7.07;3.10;;;;;;;23.69;100.00;98977.13;6283029;22;20015;-85
2022/09/15 08:36:36;;;;;;;10.57;3.50;;;;;;;23.72;100.00;98978.84;6337395;22;20018;-84
2022/09/15 08:39:02;;;;;;;7.32;3.20;;;;;;;23.89;100.00;98973.53;6338352;22;20325;-84
2022/09/15 08:41:38;;;;;;;7.72;3.38;;;;;;;23.95;100.00;98971.28;6335801;22;20086;-84
2022/09/15 08:44:29;;;;;;;8.98;3.22;;;;;;;23.97;99.67;98971.50;6337546;22;20014;-85
2022/09/15 08:47:00;;;;;;;6.00;2.88;;;;;;;23.88;99.55;98963.50;6337055;22;20015;-85
2022/09/15 08:49:32;;;;;;;6.60;3.08;;;;;;;24.06;99.37;98956.81;6309680;22;20018;-86
2022/09/15 08:52:04;;;;;;;7.00;3.13;;;;;;;24.15;97.68;98959.19;6337121;22;20014;-85
2022/09/15 08:54:31;;;;;;;10.13;3.40;;;;;;;24.11;100.00;98955.91;6337535;22;20305;-86
2022/09/15 08:56:57;;;;;;;6.78;3.40;;;;;;;24.21;98.52;98950.56;6310167;22;20332;-85
2022/09/15 08:59:32;;;;;;;8.27;3.42;;;;;;;24.34;96.59;98950.44;6309337;22;20064;-85
2022/09/15 09:02:22;;;;;;;8.10;3.17;;;;;;;24.58;96.02;98946.41;6309928;22;20011;-85
2022/09/15 09:05:20;;;;;;;7.28;3.53;;;;;;;24.95;93.01;98948.63;6309868;22;20080;-85
2022/09/15 09:08:04;;;;;;;9.30;3.17;;;;;;;24.79;91.23;98943.47;6337521;22;20015;-85
2022/09/15 09:10:51;;;;;;;8.18;3.35;;;;;;;24.77;90.22;98931.91;6337148;22;20021;-86
2022/09/15 09:13:19;;;;;;;7.32;3.28;;;;;;;24.99;91.29;98937.69;6337876;22;20015;-85
2022/09/15 09:15:59;;;;;;;8.70;3.10;;;;;;;25.24;88.72;98922.97;6309833;22;20003;-86
2022/09/15 09:18:37;;;;;;;8.73;3.38;;;;;;;25.12;89.63;98911.22;6337416;22;20014;-85
2022/09/15 09:21:13;;;;;;;9.18;3.13;;;;;;;25.32;89.43;98906.72;6337345;22;20042;-85
2022/09/15 09:23:53;;;;;;;6.28;2.80;;;;;;;25.52;88.18;98900.09;6309637;22;20011;-85
2022/09/15 09:26:19;;;;;;;8.95;3.88;;;;;;;25.61;86.55;98898.81;6309916;22;20048;-86
2022/09/15 09:28:59;;;;;;;8.45;2.97;;;;;;;25.82;81.94;98896.53;6337084;22;20340;-86
2022/09/15 09:31:26;;;;;;;9.80;3.33;;;;;;;25.87;81.58;98899.19;6309531;22;20072;-86
2022/09/15 09:33:54;;;;;;;6.20;2.92;;;;;;;26.26;81.48;98899.88;6309850;22;20447;-86
2022/09/15 09:36:20;;;;;;;5.30;2.80;;;;;;;26.22;80.67;98899.50;6337613;22;20475;-86
2022/09/15 09:38:47;;;;;;;6.28;2.75;;;;;;;26.30;81.01;98886.03;6309556;22;20077;-85
2022/09/15 09:41:26;;;;;;;5.90;2.40;;;;;;;25.89;80.13;98885.16;6309011;22;20014;-86
2022/09/15 09:43:53;;;;;;;9.82;2.60;;;;;;;25.87;82.27;98884.97;6298153;22;20010;-87
2022/09/15 09:46:20;;;;;;;6.28;2.65;;;;;;;25.96;81.65;98883.66;6336785;22;20458;-85
2022/09/15 09:49:00;;;;;;;7.80;3.08;;;;;;;25.71;81.10;98877.03;6336698;22;20470;-85
2022/09/15 09:51:28;;;;;;;8.18;2.75;;;;;;;25.11;83.95;98883.44;6336061;22;20061;-85
2022/09/15 09:53:54;;;;;;;5.85;2.95;;;;;;;24.83;83.60;98885.03;6336749;22;20014;-85
2022/09/15 09:56:24;;;;;;;10.35;2.95;;;;;;;24.76;84.79;98873.69;6336413;22;20011;-85
2022/09/15 09:58:50;;;;;;;6.90;2.90;;;;;;;24.83;85.30;98884.31;6306142;22;20010;-86
2022/09/15 10:01:18;;;;;;;6.88;2.92;;;;;;;24.77;86.57;98881.63;6306449;22;20015;-84
2022/09/15 10:03:45;;;;;;;6.50;2.78;;;;;;;24.73;85.89;98866.31;6306986;22;20011;-85
2022/09/15 10:06:13;;;;;;;6.70;3.30;;;;;;;24.68;86.36;98855.88;6307732;22;20515;-85
2022/09/15 10:09:15;;;;;;;8.25;2.92;;;;;;;24.58;86.64;98867.03;6335296;22;20021;-85
2022/09/15 10:11:46;;;;;;;8.13;3.20;;;;;;;24.51;88.08;98870.56;6202125;22;20452;-86
2022/09/15 10:14:28;;;;;;;7.25;3.10;;;;;;;24.49;87.91;98868.31;6336025;22;20011;-86
2022/09/15 10:17:32;;;;;;;9.35;3.15;;;;;;;24.45;86.19;98870.00;6308520;22;20480;-85
2022/09/15 10:19:58;;;;;;;9.95;3.05;;;;;;;24.28;87.63;98870.47;6319231;22;20018;-85
2022/09/15 10:22:30;;;;;;;6.13;2.50;;;;;;;24.30;88.14;98875.59;6336967;22;20011;-85
2022/09/15 10:24:57;;;;;;;6.53;3.15;;;;;;;24.06;89.67;98871.09;6282519;22;20011;-84
2022/09/15 10:27:29;;;;;;;5.75;3.08;;;;;;;23.91;91.40;98874.59;6307156;22;20340;-86
2022/09/15 10:29:58;;;;;;;10.15;3.10;;;;;;;23.82;94.09;98880.75;6308771;22;20073;-84
2022/09/15 10:32:29;;;;;;;6.85;3.17;;;;;;;23.58;97.45;98855.69;6308300;22;20003;-86
2022/09/15 10:35:05;;;;;;;5.78;3.55;;;;;;;23.46;98.46;98848.78;6309377;22;20015;-86
2022/09/15 10:37:36;;;;;;;10.88;3.50;;;;;;;23.43;100.00;98861.22;6282556;22;20329;-86
2022/09/15 10:40:21;;;;;;;5.50;3.17;;;;;;;23.28;100.00;98849.75;6309335;22;20033;-86
2022/09/15 10:42:51;;;;;;;8.15;3.30;;;;;;;23.10;100.00;98843.75;6335326;22;20019;-85
2022/09/15 10:45:39;;;;;;;9.85;3.45;;;;;;;23.09;100.00;98850.72;6308983;22;20444;-86
2022/09/15 10:48:21;;;;;;;6.93;3.15;;;;;;;23.00;100.00;98850.47;6309219;22;20011;-86
2022/09/15 10:50:53;;;;;;;5.18;2.78;;;;;;;22.98;100.00;98850.25;6307654;22;20423;-86
2022/09/15 10:53:28;;;;;;;8.13;3.25;;;;;;;22.98;100.00;98828.38;6309411;22;20060;-85
2022/09/15 10:56:25;;;;;;;6.63;3.47;;;;;;;23.02;100.00;98833.69;6335357;22;20444;-86
2022/09/15 10:59:02;;;;;;;6.18;3.45;;;;;;;23.03;100.00;98835.97;6308092;22;20061;-86
2022/09/15 11:01:28;;;;;;;6.25;3.53;;;;;;;23.03;100.00;98841.63;6307464;22;20017;-85
2022/09/15 11:04:15;;;;;;;6.82;3.45;;;;;;;22.99;100.00;98851.75;6336244;22;20042;-86
2022/09/15 11:07:08;;;;;;;7.72;3.15;;;;;;;22.98;100.00;98862.31;6336577;22;20068;-86
2022/09/15 11:09:51;;;;;;;11.68;3.13;;;;;;;22.96;100.00;98859.28;6336161;22;20375;-86
2022/09/15 11:12:52;;;;;;;7.40;3.50;;;;;;;22.91;100.00;98857.34;6335742;22;20042;-86
2022/09/15 11:15:49;;;;;;;7.25;3.40;;;;;;;22.87;100.00;98845.63;6327091;22;20068;-86
2022/09/15 11:18:20;;;;;;;6.03;3.35;;;;;;;22.84;100.00;98841.06;6335305;22;20011;-86
2022/09/15 11:21:01;;;;;;;6.55;3.28;;;;;;;22.78;100.00;98837.59;6307658;22;20011;-86
2022/09/15 11:23:33;;;;;;;7.80;3.38;;;;;;;22.72;100.00;98828.50;6307913;22;20448;-86
2022/09/15 11:26:20;;;;;;;9.77;3.67;;;;;;;22.59;100.00;98831.34;6307868;22;20436;-86
2022/09/15 11:29:05;;;;;;;10.60;4.10;;;;;;;22.48;100.00;98834.44;6336356;22;20010;-87
2022/09/15 11:31:37;;;;;;;9.70;4.20;;;;;;;22.37;100.00;98860.09;6306465;22;20360;-86
2022/09/15 11:34:10;;;;;;;9.93;4.03;;;;;;;22.26;100.00;98856.22;6335341;22;20015;-86
2022/09/15 11:37:00;;;;;;;7.80;4.10;;;;;;;22.24;100.00;98853.16;6308016;22;20067;-86
2022/09/15 11:39:32;;;;;;;9.65;4.05;;;;;;;22.06;100.00;98842.78;6334998;22;20094;-86
2022/09/15 11:42:07;;;;;;;11.98;4.57;;;;;;;22.03;100.00;98838.22;6333683;22;20023;-86